Time;durP1;ratioP1;P1;durP2;ratioP2;P2;SDS_P1;SDS_P2;PMS_P1;PMS_P2;Temp;Humidity;BMP_temperature;BMP_pressure;BME280_temperature;BME280_humidity;BME280_pressure;Samples;Min_cycle;Max_cycle;Signal;HPM_P1;HPM_P2
2023/08/02 00:00:12;;;;;;;4.10;1.58;;;;;;;;;;513707;28;1319;-76
2023/08/02 00:00:27;;;;;;;4.90;1.63;;;;;;;;;;512254;28;1365;-76
2023/08/02 00:00:43;;;;;;;4.00;1.60;;;;;;;;;;512470;28;1085;-76
2023/08/02 00:00:58;;;;;;;3.17;1.50;;;;;;;;;;509621;28;1268;-77
2023/08/02 00:01:14;;;;;;;3.50;1.50;;;;;;;;;;509910;28;1334;-76
2023/08/02 00:01:30;;;;;;;3.15;1.50;;;;;;;;;;512295;28;1355;-76
2023/08/02 00:01:47;;;;;;;3.13;1.50;;;;;;;;;;510671;28;1269;-76
2023/08/02 00:02:03;;;;;;;3.70;1.50;;;;;;;;;;511759;28;1450;-76
2023/08/02 00:02:19;;;;;;;3.92;1.50;;;;;;;;;;510662;28;1529;-76
2023/08/02 00:02:34;;;;;;;3.28;1.50;;;;;;;;;;512504;28;1292;-76
2023/08/02 00:02:49;;;;;;;3.37;1.50;;;;;;;;;;513663;28;1327;-76
2023/08/02 00:03:05;;;;;;;4.00;1.47;;;;;;;;;;511071;28;1448;-77
2023/08/02 00:03:21;;;;;;;3.45;1.33;;;;;;;;;;512347;28;1307;-76
2023/08/02 00:03:36;;;;;;;3.03;1.40;;;;;;;;;;512858;28;1410;-77
2023/08/02 00:03:52;;;;;;;3.07;1.40;;;;;;;;;;512797;28;1231;-76
2023/08/02 00:04:07;;;;;;;2.92;1.40;;;;;;;;;;514399;28;1472;-76
2023/08/02 00:04:23;;;;;;;4.07;1.50;;;;;;;;;;508885;28;1374;-79
2023/08/02 00:04:39;;;;;;;4.47;1.42;;;;;;;;;;513730;28;1363;-77
2023/08/02 00:04:54;;;;;;;3.53;1.50;;;;;;;;;;513369;28;1248;-77
2023/08/02 00:05:10;;;;;;;4.37;1.50;;;;;;;;;;513634;28;1223;-77
2023/08/02 00:05:26;;;;;;;4.25;1.45;;;;;;;;;;513702;28;1280;-77
2023/08/02 00:05:41;;;;;;;3.30;1.60;;;;;;;;;;513468;28;1230;-78
2023/08/02 00:05:58;;;;;;;2.37;1.40;;;;;;;;;;514152;28;1350;-77
2023/08/02 00:06:14;;;;;;;3.75;1.30;;;;;;;;;;516510;28;1266;-77
2023/08/02 00:06:29;;;;;;;4.63;1.43;;;;;;;;;;514422;28;1215;-78
2023/08/02 00:06:45;;;;;;;3.75;1.42;;;;;;;;;;512851;28;1165;-77
2023/08/02 00:07:01;;;;;;;3.20;1.30;;;;;;;;;;512540;28;1251;-77
2023/08/02 00:07:17;;;;;;;3.05;1.38;;;;;;;;;;511695;28;964;-77
2023/08/02 00:07:32;;;;;;;3.20;1.40;;;;;;;;;;512179;28;1192;-77
2023/08/02 00:07:48;;;;;;;3.35;1.45;;;;;;;;;;510058;28;1257;-76
2023/08/02 00:08:03;;;;;;;4.15;1.63;;;;;;;;;;510091;28;1272;-78
2023/08/02 00:08:19;;;;;;;4.10;1.53;;;;;;;;;;510782;28;1042;-77
2023/08/02 00:08:35;;;;;;;3.03;1.48;;;;;;;;;;511718;28;1241;-77
2023/08/02 00:08:51;;;;;;;2.20;1.40;;;;;;;;;;512309;28;1173;-78
2023/08/02 00:09:06;;;;;;;2.58;1.50;;;;;;;;;;512133;28;1513;-77
2023/08/02 00:09:22;;;;;;;3.20;1.52;;;;;;;;;;512327;28;1141;-78
2023/08/02 00:09:37;;;;;;;3.13;1.60;;;;;;;;;;509918;28;1347;-76
2023/08/02 00:09:53;;;;;;;5.07;1.77;;;;;;;;;;510059;28;1372;-77
2023/08/02 00:10:09;;;;;;;5.68;1.70;;;;;;;;;;511530;28;1140;-78
2023/08/02 00:10:24;;;;;;;4.10;1.50;;;;;;;;;;513079;28;1213;-75
2023/08/02 00:10:40;;;;;;;2.87;1.40;;;;;;;;;;513104;28;1396;-75
2023/08/02 00:10:56;;;;;;;3.13;1.42;;;;;;;;;;514208;28;1230;-75
2023/08/02 00:11:16;;;;;;;4.03;1.55;;;;;;;;;;511561;28;1231;-75
2023/08/02 00:11:31;;;;;;;4.05;1.70;;;;;;;;;;512707;28;1468;-75
2023/08/02 00:11:50;;;;;;;4.43;1.60;;;;;;;;;;512742;28;1271;-76
2023/08/02 00:12:06;;;;;;;4.45;1.70;;;;;;;;;;512570;28;1369;-75
2023/08/02 00:12:22;;;;;;;3.38;1.60;;;;;;;;;;509396;28;1524;-75
2023/08/02 00:12:37;;;;;;;3.35;1.58;;;;;;;;;;508398;28;1510;-75
2023/08/02 00:13:13;;;;;;;4.13;1.60;;;;;;;;;;507894;28;1114;-74
2023/08/02 00:13:49;;;;;;;4.43;1.50;;;;;;;;;;509644;28;1285;-75
2023/08/02 00:14:04;;;;;;;4.10;1.70;;;;;;;;;;511140;28;1420;-75
2023/08/02 00:14:20;;;;;;;4.43;1.70;;;;;;;;;;512488;28;2004;-75
2023/08/02 00:14:56;;;;;;;5.00;1.73;;;;;;;;;;512361;28;1602;-76
2023/08/02 00:15:12;;;;;;;3.67;1.60;;;;;;;;;;509602;28;1408;-76
2023/08/02 00:15:27;;;;;;;3.83;1.50;;;;;;;;;;511608;28;1153;-76
2023/08/02 00:15:43;;;;;;;4.13;1.52;;;;;;;;;;510063;28;1299;-76
2023/08/02 00:16:19;;;;;;;4.22;1.60;;;;;;;;;;511551;28;1359;-76
2023/08/02 00:16:58;;;;;;;3.70;1.50;;;;;;;;;;511538;28;1995;-76
2023/08/02 00:17:14;;;;;;;3.25;1.40;;;;;;;;;;505757;28;1419;-75
2023/08/02 00:17:32;;;;;;;3.20;1.40;;;;;;;;;;503757;28;1806;-76
2023/08/02 00:17:48;;;;;;;2.67;1.50;;;;;;;;;;507004;28;951;-78
2023/08/02 00:18:04;;;;;;;3.75;1.67;;;;;;;;;;507528;28;1252;-76
2023/08/02 00:18:20;;;;;;;4.72;1.70;;;;;;;;;;508196;28;1133;-75
2023/08/02 00:19:06;;;;;;;3.90;1.47;;;;;;;;;;508590;28;1386;-75
2023/08/02 00:19:25;;;;;;;3.42;1.45;;;;;;;;;;510793;28;2236;-77
2023/08/02 00:19:47;;;;;;;3.40;1.50;;;;;;;;;;512972;28;945;-77
2023/08/02 00:20:39;;;;;;;3.30;1.45;;;;;;;;;;510508;28;1637;-77
2023/08/02 00:21:04;;;;;;;3.97;1.58;;;;;;;;;;512545;28;1470;-77
2023/08/02 00:21:30;;;;;;;3.40;1.48;;;;;;;;;;512215;28;1590;-77
2023/08/02 00:21:45;;;;;;;3.53;1.52;;;;;;;;;;509926;28;1090;-77
2023/08/02 00:22:04;;;;;;;3.33;1.60;;;;;;;;;;509068;28;1269;-77
2023/08/02 00:22:20;;;;;;;5.68;1.60;;;;;;;;;;509397;28;1129;-76
2023/08/02 00:22:36;;;;;;;5.60;1.65;;;;;;;;;;508271;28;1307;-76
2023/08/02 00:23:42;;;;;;;3.65;1.40;;;;;;;;;;507508;28;1217;-77
2023/08/02 00:25:18;;;;;;;3.80;1.50;;;;;;;;;;511849;28;934;-78
2023/08/02 00:26:06;;;;;;;4.03;1.60;;;;;;;;;;512306;28;1359;-76
2023/08/02 00:26:36;;;;;;;3.88;1.50;;;;;;;;;;504672;28;1297;-77
2023/08/02 00:26:57;;;;;;;3.92;1.50;;;;;;;;;;510190;28;1458;-76
2023/08/02 00:27:19;;;;;;;3.42;1.60;;;;;;;;;;509088;28;1472;-78
2023/08/02 00:27:40;;;;;;;2.85;1.60;;;;;;;;;;509632;28;1490;-78
2023/08/02 00:28:28;;;;;;;3.17;1.50;;;;;;;;;;505896;28;1271;-78
2023/08/02 00:28:47;;;;;;;3.55;1.52;;;;;;;;;;499494;28;1350;-78
2023/08/02 00:29:08;;;;;;;3.10;1.52;;;;;;;;;;494949;29;1214;-77
2023/08/02 00:29:41;;;;;;;4.18;1.60;;;;;;;;;;497815;29;960;-76
2023/08/02 00:30:07;;;;;;;4.68;1.60;;;;;;;;;;504752;28;1323;-77
2023/08/02 00:30:23;;;;;;;2.67;1.40;;;;;;;;;;509618;28;1196;-76
2023/08/02 00:31:33;;;;;;;2.58;1.30;;;;;;;;;;508027;28;1018;-77
2023/08/02 00:33:06;;;;;;;5.53;1.50;;;;;;;;;;492433;29;1109;-76
2023/08/02 00:34:33;;;;;;;3.53;1.50;;;;;;;;;;487990;29;1383;-77
2023/08/02 00:35:16;;;;;;;3.70;1.60;;;;;;;;;;488244;29;1807;-77
2023/08/02 00:35:32;;;;;;;2.40;1.30;;;;;;;;;;489950;29;1833;-78
2023/08/02 00:36:03;;;;;;;2.72;1.40;;;;;;;;;;492185;29;1291;-77
2023/08/02 00:36:24;;;;;;;3.28;1.42;;;;;;;;;;492165;29;1120;-77
2023/08/02 00:37:09;;;;;;;3.45;1.55;;;;;;;;;;491632;29;1144;-77
2023/08/02 00:38:02;;;;;;;2.95;1.48;;;;;;;;;;490055;29;1196;-78
2023/08/02 00:38:29;;;;;;;2.88;1.60;;;;;;;;;;492387;29;1612;-77
2023/08/02 00:39:19;;;;;;;3.63;1.50;;;;;;;;;;491527;29;1328;-78
2023/08/02 00:39:51;;;;;;;3.33;1.45;;;;;;;;;;493140;29;1431;-76
2023/08/02 00:40:16;;;;;;;3.50;1.58;;;;;;;;;;490817;29;1446;-77
2023/08/02 00:41:26;;;;;;;3.10;1.48;;;;;;;;;;492703;29;1311;-78
2023/08/02 00:42:37;;;;;;;4.07;1.70;;;;;;;;;;486863;29;1169;-77
2023/08/02 00:42:56;;;;;;;3.58;1.70;;;;;;;;;;486487;29;1300;-77
2023/08/02 00:43:29;;;;;;;2.45;1.50;;;;;;;;;;487121;29;1288;-78
2023/08/02 00:44:05;;;;;;;3.22;1.58;;;;;;;;;;492684;29;1320;-78
2023/08/02 00:45:04;;;;;;;3.17;1.60;;;;;;;;;;491336;29;1416;-78
2023/08/02 00:45:29;;;;;;;2.72;1.60;;;;;;;;;;486291;29;1515;-77
2023/08/02 00:46:04;;;;;;;3.50;1.73;;;;;;;;;;484025;29;1283;-77
2023/08/02 00:46:33;;;;;;;4.13;1.63;;;;;;;;;;490429;29;1222;-77
2023/08/02 00:46:51;;;;;;;2.08;1.40;;;;;;;;;;493358;29;1376;-77
2023/08/02 00:47:43;;;;;;;2.33;1.40;;;;;;;;;;493539;29;973;-77
2023/08/02 00:48:14;;;;;;;4.90;1.60;;;;;;;;;;490929;29;1867;-77
2023/08/02 00:48:39;;;;;;;3.08;1.40;;;;;;;;;;492452;29;1140;-78
2023/08/02 00:49:03;;;;;;;3.85;1.52;;;;;;;;;;490358;29;1387;-77
2023/08/02 00:49:23;;;;;;;3.38;1.77;;;;;;;;;;492840;29;1136;-77
2023/08/02 00:49:43;;;;;;;3.40;1.63;;;;;;;;;;492369;29;1103;-77
2023/08/02 00:50:06;;;;;;;2.60;1.60;;;;;;;;;;491078;29;1324;-77
2023/08/02 00:50:28;;;;;;;2.65;1.40;;;;;;;;;;491081;29;2311;-77
2023/08/02 00:51:05;;;;;;;4.15;1.70;;;;;;;;;;489801;29;1277;-77
2023/08/02 00:52:35;;;;;;;3.05;1.60;;;;;;;;;;487511;29;1339;-76
2023/08/02 00:53:03;;;;;;;2.92;1.58;;;;;;;;;;487466;29;1627;-77
2023/08/02 00:53:22;;;;;;;3.63;1.60;;;;;;;;;;492702;29;1155;-77
2023/08/02 00:54:35;;;;;;;3.30;1.70;;;;;;;;;;492562;29;1345;-77
2023/08/02 00:55:11;;;;;;;2.88;1.60;;;;;;;;;;491732;29;1527;-78
2023/08/02 00:55:58;;;;;;;3.10;1.80;;;;;;;;;;488296;29;1502;-76
2023/08/02 00:56:22;;;;;;;3.60;1.52;;;;;;;;;;489690;29;1390;-77
2023/08/02 00:56:42;;;;;;;3.40;1.38;;;;;;;;;;489089;29;970;-77
2023/08/02 00:57:46;;;;;;;3.33;1.70;;;;;;;;;;488186;29;1429;-77
2023/08/02 00:58:08;;;;;;;2.92;1.55;;;;;;;;;;489794;29;1430;-76
2023/08/02 00:58:24;;;;;;;2.95;1.40;;;;;;;;;;487408;29;1550;-77
2023/08/02 00:58:48;;;;;;;3.50;1.60;;;;;;;;;;486673;29;1030;-78
2023/08/02 00:59:19;;;;;;;3.47;1.63;;;;;;;;;;486877;29;977;-78
2023/08/02 00:59:37;;;;;;;3.30;1.60;;;;;;;;;;488147;29;1106;-77
2023/08/02 00:59:54;;;;;;;2.80;1.50;;;;;;;;;;490063;29;1463;-77
2023/08/02 01:00:43;;;;;;;3.28;1.40;;;;;;;;;;489942;29;1208;-78
2023/08/02 01:01:13;;;;;;;5.10;1.73;;;;;;;;;;489954;29;1293;-77
2023/08/02 01:02:41;;;;;;;;;;;;;;;;;;;;;
2023/08/02 01:02:42;;;;;;;4.93;1.85;;;;;;;;;;490384;29;1060;-78
2023/08/02 01:03:10;;;;;;;4.30;1.80;;;;;;;;;;490166;29;1943;-78
2023/08/02 01:03:28;;;;;;;3.30;1.70;;;;;;;;;;488401;29;1408;-78
2023/08/02 01:03:44;;;;;;;3.67;1.70;;;;;;;;;;487392;29;1369;-77
2023/08/02 01:04:06;;;;;;;3.30;1.60;;;;;;;;;;489734;29;1221;-77
2023/08/02 01:04:57;;;;;;;2.97;1.58;;;;;;;;;;490249;29;1731;-77
2023/08/02 01:05:15;;;;;;;5.38;1.95;;;;;;;;;;487055;29;1489;-77
2023/08/02 01:05:40;;;;;;;4.00;1.73;;;;;;;;;;487503;29;1285;-77
2023/08/02 01:06:04;;;;;;;3.10;1.65;;;;;;;;;;490156;29;1982;-77
2023/08/02 01:06:46;;;;;;;3.17;1.70;;;;;;;;;;490830;29;1319;-78
2023/08/02 01:07:17;;;;;;;4.18;1.63;;;;;;;;;;491435;29;1232;-77
2023/08/02 01:08:06;;;;;;;4.88;1.58;;;;;;;;;;491988;29;1358;-78
2023/08/02 01:08:54;;;;;;;3.80;1.60;;;;;;;;;;492115;29;1414;-77
2023/08/02 01:09:54;;;;;;;3.47;1.60;;;;;;;;;;491281;29;1489;-76
2023/08/02 01:10:26;;;;;;;3.35;1.67;;;;;;;;;;486928;29;1397;-78
2023/08/02 01:11:07;;;;;;;2.78;1.63;;;;;;;;;;493433;29;1317;-78
2023/08/02 01:13:42;;;;;;;3.53;1.70;;;;;;;;;;503265;28;1293;-78
2023/08/02 01:14:02;;;;;;;3.47;1.73;;;;;;;;;;501595;28;1064;-77
2023/08/02 01:14:20;;;;;;;3.72;1.77;;;;;;;;;;501254;28;1187;-77
2023/08/02 01:14:43;;;;;;;3.75;1.80;;;;;;;;;;500223;28;1713;-77
2023/08/02 01:15:02;;;;;;;3.63;1.85;;;;;;;;;;497875;28;984;-77
2023/08/02 01:15:18;;;;;;;3.97;1.90;;;;;;;;;;498403;28;1101;-76
2023/08/02 01:15:47;;;;;;;4.40;1.80;;;;;;;;;;498573;28;1069;-77
2023/08/02 01:16:03;;;;;;;3.78;1.63;;;;;;;;;;501818;28;1357;-77
2023/08/02 01:16:20;;;;;;;3.30;1.60;;;;;;;;;;503323;28;1379;-77
2023/08/02 01:16:37;;;;;;;3.45;1.70;;;;;;;;;;503705;28;1345;-78
2023/08/02 01:16:53;;;;;;;3.40;1.73;;;;;;;;;;504920;28;1522;-77
2023/08/02 01:17:12;;;;;;;3.28;1.77;;;;;;;;;;503329;28;988;-77
2023/08/02 01:17:28;;;;;;;2.92;1.50;;;;;;;;;;503978;28;960;-78
2023/08/02 01:17:44;;;;;;;2.57;1.50;;;;;;;;;;503967;28;1316;-77
2023/08/02 01:18:00;;;;;;;3.25;1.67;;;;;;;;;;504019;28;1284;-77
2023/08/02 01:18:15;;;;;;;3.80;1.77;;;;;;;;;;502938;28;1280;-77
2023/08/02 01:18:31;;;;;;;3.83;1.70;;;;;;;;;;503404;28;1150;-77
2023/08/02 01:19:10;;;;;;;3.33;1.48;;;;;;;;;;500681;29;1288;-77
2023/08/02 01:19:25;;;;;;;3.45;1.65;;;;;;;;;;501202;29;1036;-77
2023/08/02 01:19:45;;;;;;;3.40;1.70;;;;;;;;;;502428;28;1340;-77
2023/08/02 01:20:06;;;;;;;3.30;1.75;;;;;;;;;;500216;29;1380;-77
2023/08/02 01:20:22;;;;;;;2.97;1.60;;;;;;;;;;502460;28;1429;-77
2023/08/02 01:20:38;;;;;;;3.17;1.70;;;;;;;;;;501630;28;1254;-78
2023/08/02 01:21:13;;;;;;;3.28;1.80;;;;;;;;;;501443;29;1264;-78
2023/08/02 01:21:49;;;;;;;3.97;1.80;;;;;;;;;;502592;28;1215;-77
2023/08/02 01:22:05;;;;;;;3.50;1.80;;;;;;;;;;500980;28;1534;-77
2023/08/02 01:22:40;;;;;;;3.92;1.60;;;;;;;;;;501322;28;1302;-78
2023/08/02 01:22:56;;;;;;;3.35;1.70;;;;;;;;;;503196;28;1807;-78
2023/08/02 01:23:32;;;;;;;3.60;1.77;;;;;;;;;;503726;28;968;-77
2023/08/02 01:23:47;;;;;;;3.72;1.73;;;;;;;;;;501815;28;1484;-76
2023/08/02 01:24:05;;;;;;;3.23;1.60;;;;;;;;;;501310;28;1360;-77
2023/08/02 01:24:25;;;;;;;2.97;1.67;;;;;;;;;;500701;29;1494;-77
2023/08/02 01:24:41;;;;;;;3.45;1.70;;;;;;;;;;501049;29;1000;-77
2023/08/02 01:24:59;;;;;;;3.30;1.73;;;;;;;;;;500130;29;1384;-76
2023/08/02 01:25:14;;;;;;;3.40;1.88;;;;;;;;;;500587;29;1400;-79
2023/08/02 01:25:32;;;;;;;3.37;1.83;;;;;;;;;;501759;29;1491;-76
2023/08/02 01:25:50;;;;;;;2.78;1.70;;;;;;;;;;504155;28;1422;-76
2023/08/02 01:26:05;;;;;;;3.30;1.80;;;;;;;;;;503588;28;1253;-77
2023/08/02 01:26:43;;;;;;;3.00;1.70;;;;;;;;;;505663;28;1225;-77
2023/08/02 01:27:05;;;;;;;3.65;1.77;;;;;;;;;;509626;28;1312;-77
2023/08/02 01:27:25;;;;;;;3.88;1.90;;;;;;;;;;508124;28;1510;-76
2023/08/02 01:27:51;;;;;;;3.95;1.70;;;;;;;;;;508812;28;1279;-77
2023/08/02 01:28:13;;;;;;;5.47;1.98;;;;;;;;;;511939;28;1393;-77
2023/08/02 01:28:33;;;;;;;4.85;1.80;;;;;;;;;;510308;28;1419;-77
2023/08/02 01:29:12;;;;;;;3.22;1.60;;;;;;;;;;508152;28;1146;-77
2023/08/02 01:29:31;;;;;;;3.75;1.80;;;;;;;;;;510045;28;1394;-75
2023/08/02 01:29:49;;;;;;;3.55;1.80;;;;;;;;;;510136;28;1524;-76
2023/08/02 01:30:09;;;;;;;3.30;1.73;;;;;;;;;;509602;28;1335;-77
2023/08/02 01:30:30;;;;;;;3.33;1.83;;;;;;;;;;511287;28;1327;-77
2023/08/02 01:30:47;;;;;;;4.13;1.90;;;;;;;;;;511216;28;1314;-77
2023/08/02 01:31:03;;;;;;;3.80;1.95;;;;;;;;;;510539;28;1402;-78
2023/08/02 01:31:21;;;;;;;3.50;1.80;;;;;;;;;;512411;28;1284;-77
2023/08/02 01:31:57;;;;;;;4.15;1.83;;;;;;;;;;512501;28;1450;-77
2023/08/02 01:32:33;;;;;;;3.58;1.67;;;;;;;;;;509161;28;1559;-77
2023/08/02 01:32:49;;;;;;;3.50;1.80;;;;;;;;;;509513;28;1275;-77
2023/08/02 01:33:05;;;;;;;3.60;1.70;;;;;;;;;;510396;28;1426;-77
2023/08/02 01:33:22;;;;;;;3.33;1.70;;;;;;;;;;509841;28;1161;-77
2023/08/02 01:33:47;;;;;;;3.38;1.80;;;;;;;;;;510372;28;1357;-77
2023/08/02 01:34:03;;;;;;;3.17;1.80;;;;;;;;;;508124;28;1349;-77
2023/08/02 01:34:19;;;;;;;3.95;1.85;;;;;;;;;;510221;28;1504;-77
2023/08/02 01:34:35;;;;;;;3.45;1.67;;;;;;;;;;509921;28;1977;-77
2023/08/02 01:34:51;;;;;;;2.80;1.50;;;;;;;;;;511521;28;1241;-77
2023/08/02 01:35:08;;;;;;;3.85;1.77;;;;;;;;;;511687;28;1292;-77
2023/08/02 01:35:25;;;;;;;4.13;1.85;;;;;;;;;;512183;28;1171;-77
2023/08/02 01:35:41;;;;;;;4.00;1.70;;;;;;;;;;507521;28;1209;-77
2023/08/02 01:35:56;;;;;;;3.47;1.80;;;;;;;;;;507929;28;1258;-77
2023/08/02 01:36:12;;;;;;;3.13;1.90;;;;;;;;;;508688;28;1348;-76
2023/08/02 01:36:28;;;;;;;3.42;1.92;;;;;;;;;;506458;28;1261;-77
2023/08/02 01:36:44;;;;;;;3.55;1.80;;;;;;;;;;506880;28;1383;-77
2023/08/02 01:36:59;;;;;;;3.53;1.70;;;;;;;;;;507304;28;1276;-76
2023/08/02 01:37:18;;;;;;;3.42;1.80;;;;;;;;;;508872;28;1205;-77
2023/08/02 01:37:36;;;;;;;3.75;1.85;;;;;;;;;;509837;28;1344;-77
2023/08/02 01:37:53;;;;;;;4.00;1.70;;;;;;;;;;509835;28;1538;-77
2023/08/02 01:38:09;;;;;;;4.15;1.85;;;;;;;;;;511381;28;1408;-77
2023/08/02 01:38:24;;;;;;;3.88;1.80;;;;;;;;;;511957;28;1359;-77
2023/08/02 01:38:40;;;;;;;4.18;1.60;;;;;;;;;;510250;28;1305;-77
2023/08/02 01:38:56;;;;;;;3.92;1.77;;;;;;;;;;508900;28;1275;-77
2023/08/02 01:39:12;;;;;;;3.67;1.70;;;;;;;;;;507840;28;1340;-77
2023/08/02 01:39:27;;;;;;;3.25;1.60;;;;;;;;;;509142;28;1483;-77
2023/08/02 01:39:43;;;;;;;2.70;1.60;;;;;;;;;;507694;28;1124;-77
2023/08/02 01:40:08;;;;;;;3.60;1.80;;;;;;;;;;507966;28;1140;-77
2023/08/02 01:40:24;;;;;;;3.60;1.75;;;;;;;;;;507563;28;1413;-77
2023/08/02 01:40:39;;;;;;;3.20;1.60;;;;;;;;;;505237;28;1336;-78
2023/08/02 01:40:55;;;;;;;3.33;1.60;;;;;;;;;;508280;28;1437;-77
2023/08/02 01:41:11;;;;;;;2.45;1.50;;;;;;;;;;508507;28;1456;-77
2023/08/02 01:41:26;;;;;;;2.20;1.60;;;;;;;;;;510816;28;1426;-76
2023/08/02 01:42:05;;;;;;;3.00;1.63;;;;;;;;;;510316;28;1364;-77
2023/08/02 01:42:21;;;;;;;3.45;1.60;;;;;;;;;;510173;28;1029;-77
2023/08/02 01:42:36;;;;;;;4.00;1.60;;;;;;;;;;510970;28;1219;-77
2023/08/02 01:42:52;;;;;;;3.25;1.50;;;;;;;;;;509756;28;1353;-78
2023/08/02 01:43:07;;;;;;;2.83;1.60;;;;;;;;;;510355;28;1285;-77
2023/08/02 01:43:23;;;;;;;3.10;1.52;;;;;;;;;;511306;28;1232;-77
2023/08/02 01:43:38;;;;;;;3.00;1.50;;;;;;;;;;512218;28;1374;-77
2023/08/02 01:43:54;;;;;;;3.25;1.67;;;;;;;;;;512740;28;1254;-77
2023/08/02 01:44:30;;;;;;;3.43;1.70;;;;;;;;;;511039;28;1255;-77
2023/08/02 01:44:45;;;;;;;2.65;1.70;;;;;;;;;;509758;28;1536;-77
2023/08/02 01:45:01;;;;;;;2.35;1.65;;;;;;;;;;510029;28;1382;-77
2023/08/02 01:45:16;;;;;;;3.10;1.80;;;;;;;;;;509257;28;1421;-77
2023/08/02 01:45:32;;;;;;;4.25;2.00;;;;;;;;;;509617;28;1275;-77
2023/08/02 01:45:48;;;;;;;3.57;1.70;;;;;;;;;;509452;28;1175;-78
2023/08/02 01:46:03;;;;;;;3.17;1.60;;;;;;;;;;510521;28;1252;-76
2023/08/02 01:46:19;;;;;;;3.17;1.50;;;;;;;;;;512327;28;1275;-76
2023/08/02 01:46:44;;;;;;;2.63;1.50;;;;;;;;;;509957;28;1350;-78
2023/08/02 01:46:59;;;;;;;3.38;1.48;;;;;;;;;;510450;28;1563;-77
2023/08/02 01:47:17;;;;;;;3.10;1.50;;;;;;;;;;508104;28;1215;-77
2023/08/02 01:47:33;;;;;;;3.10;1.50;;;;;;;;;;507587;28;1328;-77
2023/08/02 01:47:48;;;;;;;3.17;1.60;;;;;;;;;;506360;28;1281;-77
2023/08/02 01:48:04;;;;;;;3.50;1.70;;;;;;;;;;506560;28;1046;-77
2023/08/02 01:48:22;;;;;;;3.27;1.70;;;;;;;;;;505527;28;1249;-77
2023/08/02 01:48:58;;;;;;;3.58;1.60;;;;;;;;;;507925;28;1291;-77
2023/08/02 01:49:13;;;;;;;2.92;1.50;;;;;;;;;;509313;28;1439;-76
2023/08/02 01:49:29;;;;;;;3.20;1.52;;;;;;;;;;508825;28;1458;-77
2023/08/02 01:49:45;;;;;;;2.97;1.50;;;;;;;;;;508287;28;1378;-77
2023/08/02 01:50:00;;;;;;;2.77;1.50;;;;;;;;;;508610;28;1420;-77
2023/08/02 01:50:16;;;;;;;3.33;1.50;;;;;;;;;;508899;28;1230;-77
2023/08/02 01:50:32;;;;;;;3.17;1.53;;;;;;;;;;509533;28;1061;-76
2023/08/02 01:50:48;;;;;;;2.65;1.50;;;;;;;;;;509391;28;1454;-77
2023/08/02 01:51:05;;;;;;;2.75;1.45;;;;;;;;;;511533;28;1236;-77
2023/08/02 01:51:20;;;;;;;2.67;1.50;;;;;;;;;;511534;28;1312;-77
2023/08/02 01:51:36;;;;;;;2.53;1.45;;;;;;;;;;509473;28;1443;-78
2023/08/02 01:52:00;;;;;;;3.43;1.40;;;;;;;;;;507746;28;1245;-76
2023/08/02 01:52:15;;;;;;;3.58;1.70;;;;;;;;;;507686;28;2081;-77
2023/08/02 01:52:31;;;;;;;3.63;1.60;;;;;;;;;;509279;28;1347;-77
2023/08/02 01:52:49;;;;;;;2.47;1.50;;;;;;;;;;509812;28;1320;-77
2023/08/02 01:53:04;;;;;;;1.98;1.40;;;;;;;;;;507231;28;1276;-77
2023/08/02 01:53:29;;;;;;;3.45;1.50;;;;;;;;;;506868;28;1560;-77
2023/08/02 01:53:44;;;;;;;3.38;1.70;;;;;;;;;;506881;28;1296;-76
2023/08/02 01:54:40;;;;;;;3.38;1.65;;;;;;;;;;508133;28;1362;-76
2023/08/02 01:54:56;;;;;;;3.80;1.55;;;;;;;;;;509615;28;1202;-77
2023/08/02 01:55:32;;;;;;;4.20;1.60;;;;;;;;;;510354;28;1251;-77
2023/08/02 01:55:48;;;;;;;2.78;1.52;;;;;;;;;;510633;28;1457;-77
2023/08/02 01:56:04;;;;;;;2.17;1.48;;;;;;;;;;512350;28;1156;-77
2023/08/02 01:56:19;;;;;;;2.72;1.60;;;;;;;;;;511076;28;1368;-77
2023/08/02 01:56:55;;;;;;;3.03;1.60;;;;;;;;;;511784;28;1360;-77
2023/08/02 01:57:11;;;;;;;3.83;1.90;;;;;;;;;;511144;28;1335;-76
2023/08/02 01:57:26;;;;;;;3.55;1.67;;;;;;;;;;509389;28;1433;-77
2023/08/02 01:57:42;;;;;;;2.90;1.50;;;;;;;;;;508862;28;1295;-76
2023/08/02 01:57:58;;;;;;;2.90;1.60;;;;;;;;;;507916;28;1355;-77
2023/08/02 01:58:13;;;;;;;2.63;1.60;;;;;;;;;;508135;28;990;-76
2023/08/02 01:58:30;;;;;;;2.50;1.60;;;;;;;;;;507719;28;1203;-76
2023/08/02 01:58:46;;;;;;;2.90;1.73;;;;;;;;;;507242;28;1523;-77
2023/08/02 01:59:01;;;;;;;3.70;1.73;;;;;;;;;;507798;28;1506;-77
2023/08/02 01:59:26;;;;;;;3.83;1.67;;;;;;;;;;508475;28;1303;-77
2023/08/02 01:59:50;;;;;;;2.97;1.40;;;;;;;;;;511995;28;1337;-76
2023/08/02 02:00:06;;;;;;;2.90;1.58;;;;;;;;;;511598;28;1507;-77
2023/08/02 02:00:22;;;;;;;3.63;1.70;;;;;;;;;;509851;28;1345;-77
2023/08/02 02:00:38;;;;;;;3.20;1.60;;;;;;;;;;509741;28;1337;-77
2023/08/02 02:00:53;;;;;;;2.95;1.70;;;;;;;;;;509487;28;1477;-77
2023/08/02 02:01:09;;;;;;;3.72;1.70;;;;;;;;;;508817;28;1372;-77
2023/08/02 02:02:05;;;;;;;3.30;1.50;;;;;;;;;;506517;28;1484;-76
2023/08/02 02:02:20;;;;;;;2.17;1.50;;;;;;;;;;508309;28;1577;-77
2023/08/02 02:02:36;;;;;;;2.13;1.57;;;;;;;;;;507916;28;1386;-76
2023/08/02 02:02:51;;;;;;;3.08;1.50;;;;;;;;;;510206;28;932;-77
2023/08/02 02:03:07;;;;;;;3.80;1.50;;;;;;;;;;512662;28;990;-77
2023/08/02 02:03:43;;;;;;;3.05;1.52;;;;;;;;;;513851;28;986;-77
2023/08/02 02:03:59;;;;;;;2.72;1.50;;;;;;;;;;511973;28;1402;-77
2023/08/02 02:04:14;;;;;;;3.50;1.60;;;;;;;;;;512962;28;1259;-77
2023/08/02 02:04:30;;;;;;;4.77;1.80;;;;;;;;;;510346;28;1171;-76
2023/08/02 02:04:45;;;;;;;3.85;1.60;;;;;;;;;;511500;28;1247;-76
2023/08/02 02:05:01;;;;;;;2.90;1.50;;;;;;;;;;512335;28;1257;-77
2023/08/02 02:05:17;;;;;;;2.75;1.60;;;;;;;;;;509456;28;1295;-77
2023/08/02 02:05:32;;;;;;;2.45;1.60;;;;;;;;;;511739;28;1457;-76
2023/08/02 02:05:52;;;;;;;2.77;1.57;;;;;;;;;;508940;28;1240;-76
2023/08/02 02:06:08;;;;;;;2.97;1.60;;;;;;;;;;507012;28;1391;-77
2023/08/02 02:06:24;;;;;;;2.40;1.50;;;;;;;;;;508159;28;1379;-77
2023/08/02 02:06:39;;;;;;;3.10;1.58;;;;;;;;;;509784;28;1328;-77
2023/08/02 02:06:55;;;;;;;3.30;1.70;;;;;;;;;;509850;28;1231;-76
2023/08/02 02:07:11;;;;;;;2.60;1.63;;;;;;;;;;507577;28;1386;-77
2023/08/02 02:07:26;;;;;;;2.65;1.70;;;;;;;;;;508531;28;1306;-76
2023/08/02 02:07:42;;;;;;;2.37;1.70;;;;;;;;;;510614;28;1434;-76
2023/08/02 02:07:57;;;;;;;2.38;1.70;;;;;;;;;;509910;28;1256;-77
2023/08/02 02:08:13;;;;;;;3.08;1.75;;;;;;;;;;508016;28;1232;-76
2023/08/02 02:08:49;;;;;;;3.27;1.80;;;;;;;;;;504562;28;1201;-77
2023/08/02 02:09:05;;;;;;;2.47;1.50;;;;;;;;;;506281;28;1335;-77
2023/08/02 02:09:20;;;;;;;2.90;1.60;;;;;;;;;;508733;28;1305;-77
2023/08/02 02:09:36;;;;;;;3.27;1.57;;;;;;;;;;507249;28;1235;-77
2023/08/02 02:09:51;;;;;;;2.80;1.50;;;;;;;;;;509219;28;1251;-77
2023/08/02 02:10:07;;;;;;;2.50;1.50;;;;;;;;;;510313;28;1385;-78
2023/08/02 02:10:50;;;;;;;2.30;1.52;;;;;;;;;;511093;28;1153;-77
2023/08/02 02:11:05;;;;;;;2.50;1.40;;;;;;;;;;503693;28;1503;-77
2023/08/02 02:11:21;;;;;;;2.20;1.40;;;;;;;;;;508454;28;1842;-77
2023/08/02 02:11:36;;;;;;;2.25;1.40;;;;;;;;;;511347;28;1006;-77
2023/08/02 02:11:52;;;;;;;3.17;1.40;;;;;;;;;;510305;28;1226;-76
2023/08/02 02:12:08;;;;;;;2.65;1.40;;;;;;;;;;509546;28;1477;-77
2023/08/02 02:12:43;;;;;;;2.88;1.60;;;;;;;;;;507628;28;1252;-77
2023/08/02 02:12:59;;;;;;;2.72;1.55;;;;;;;;;;506360;28;1466;-77
2023/08/02 02:13:16;;;;;;;2.72;1.50;;;;;;;;;;509141;28;1274;-77
2023/08/02 02:13:32;;;;;;;2.85;1.40;;;;;;;;;;508498;28;1385;-77
2023/08/02 02:13:48;;;;;;;2.40;1.40;;;;;;;;;;510038;28;1514;-77
2023/08/02 02:14:03;;;;;;;2.13;1.40;;;;;;;;;;510424;28;1430;-77
2023/08/02 02:14:19;;;;;;;2.97;1.57;;;;;;;;;;511538;28;1263;-77
2023/08/02 02:14:35;;;;;;;3.08;1.60;;;;;;;;;;509600;28;1914;-77
2023/08/02 02:14:50;;;;;;;2.70;1.50;;;;;;;;;;511339;28;1549;-77
2023/08/02 02:15:06;;;;;;;2.37;1.50;;;;;;;;;;510534;28;1500;-77
2023/08/02 02:15:22;;;;;;;2.17;1.50;;;;;;;;;;509953;28;1244;-77
2023/08/02 02:15:38;;;;;;;2.47;1.50;;;;;;;;;;511651;28;1286;-76
2023/08/02 02:15:53;;;;;;;1.90;1.20;;;;;;;;;;508088;28;1289;-77
2023/08/02 02:16:09;;;;;;;1.70;1.20;;;;;;;;;;507870;28;1242;-77
2023/08/02 02:16:24;;;;;;;2.35;1.30;;;;;;;;;;508646;28;1306;-77
2023/08/02 02:16:40;;;;;;;2.87;1.53;;;;;;;;;;509489;28;1347;-77
2023/08/02 02:16:55;;;;;;;2.95;1.60;;;;;;;;;;507730;28;1274;-76
2023/08/02 02:17:11;;;;;;;2.60;1.50;;;;;;;;;;508543;28;1172;-77
2023/08/02 02:17:27;;;;;;;2.50;1.50;;;;;;;;;;511502;28;1382;-77
2023/08/02 02:18:03;;;;;;;2.65;1.50;;;;;;;;;;509049;28;1264;-77
2023/08/02 02:18:19;;;;;;;2.72;1.45;;;;;;;;;;511249;28;1338;-78
2023/08/02 02:18:34;;;;;;;2.90;1.70;;;;;;;;;;513714;28;1401;-76
2023/08/02 02:19:30;;;;;;;3.00;1.70;;;;;;;;;;512091;28;1212;-77
2023/08/02 02:20:06;;;;;;;2.17;1.58;;;;;;;;;;512594;28;1251;-76
2023/08/02 02:20:22;;;;;;;3.20;1.67;;;;;;;;;;511377;28;1139;-76
2023/08/02 02:20:37;;;;;;;3.03;1.60;;;;;;;;;;511905;28;1371;-76
2023/08/02 02:20:53;;;;;;;2.70;1.50;;;;;;;;;;509510;28;1379;-77
2023/08/02 02:21:08;;;;;;;2.67;1.48;;;;;;;;;;509668;28;1271;-77
2023/08/02 02:21:24;;;;;;;3.23;1.57;;;;;;;;;;506687;28;1343;-77
2023/08/02 02:22:20;;;;;;;2.95;1.60;;;;;;;;;;504107;28;1207;-77
2023/08/02 02:22:35;;;;;;;3.70;1.70;;;;;;;;;;508033;28;1402;-77
2023/08/02 02:22:51;;;;;;;2.97;1.70;;;;;;;;;;509649;28;1267;-77
2023/08/02 02:23:06;;;;;;;2.83;1.63;;;;;;;;;;511886;28;1260;-77
2023/08/02 02:23:22;;;;;;;3.03;1.58;;;;;;;;;;509902;28;1396;-77
2023/08/02 02:23:37;;;;;;;3.38;1.58;;;;;;;;;;508672;28;1377;-77
2023/08/02 02:23:53;;;;;;;3.73;1.70;;;;;;;;;;507706;28;1239;-77